createdAt,value
2019-03-23T00:00:53.848Z,7.10
2019-03-23T00:02:10.989Z,7.10
2019-03-23T00:03:28.224Z,7.10
2019-03-23T00:04:44.824Z,7.10
2019-03-23T00:06:01.342Z,7.00
2019-03-23T00:07:18.457Z,7.00
2019-03-23T00:08:35.701Z,7.00
2019-03-23T00:09:52.949Z,7.00
2019-03-23T00:11:10.081Z,7.00
2019-03-23T00:12:26.807Z,7.00
2019-03-23T00:13:43.899Z,7.00
2019-03-23T00:15:00.537Z,7.00
2019-03-23T00:16:17.739Z,7.00
2019-03-23T00:17:34.027Z,6.90
2019-03-23T00:18:50.855Z,6.90
2019-03-23T00:20:06.530Z,6.90
2019-03-23T00:21:31.062Z,6.90
2019-03-23T00:22:55.471Z,6.90
2019-03-23T00:24:12.104Z,6.90
2019-03-23T00:25:28.804Z,6.90
2019-03-23T00:26:45.419Z,6.90
2019-03-23T00:28:03.026Z,6.90
2019-03-23T00:29:19.584Z,6.80
2019-03-23T00:30:36.049Z,6.80
2019-03-23T00:31:52.527Z,6.80
2019-03-23T00:33:09.771Z,6.80
2019-03-23T00:34:26.272Z,6.80
2019-03-23T00:35:43.149Z,6.80
2019-03-23T00:36:59.616Z,6.80
2019-03-23T00:38:16.842Z,6.80
2019-03-23T00:39:33.307Z,6.80
2019-03-23T00:40:49.677Z,6.80
2019-03-23T00:42:06.191Z,6.80
2019-03-23T00:43:22.610Z,6.70
2019-03-23T00:44:39.275Z,6.70
2019-03-23T00:45:55.901Z,6.70
2019-03-23T00:47:12.448Z,6.70
2019-03-23T00:48:29.122Z,6.70
2019-03-23T00:49:46.017Z,6.70
2019-03-23T00:51:02.541Z,6.70
2019-03-23T00:52:19.083Z,6.70
2019-03-23T00:53:35.514Z,6.70
2019-03-23T00:54:51.878Z,6.70
2019-03-23T00:56:09.164Z,6.70
2019-03-23T00:57:25.574Z,6.70
2019-03-23T00:58:41.960Z,6.70
2019-03-23T00:59:58.910Z,6.70
2019-03-23T01:01:15.527Z,6.70
2019-03-23T01:02:32.353Z,6.70
2019-03-23T01:03:48.752Z,6.70
2019-03-23T01:05:05.740Z,6.70
2019-03-23T01:06:22.977Z,6.70
2019-03-23T01:07:42.112Z,6.70
2019-03-23T01:08:58.641Z,6.70
2019-03-23T01:10:15.187Z,6.70
2019-03-23T01:11:32.207Z,6.60
2019-03-23T01:12:49.277Z,6.60
2019-03-23T01:14:06.557Z,6.60
2019-03-23T01:15:23.439Z,6.60
2019-03-23T01:16:39.921Z,6.60
2019-03-23T01:17:56.321Z,6.60
2019-03-23T01:19:12.837Z,6.60
2019-03-23T01:20:30.033Z,6.60
2019-03-23T01:21:46.341Z,6.50
2019-03-23T01:23:02.682Z,6.50
2019-03-23T01:24:19.277Z,6.50
2019-03-23T01:25:35.654Z,6.50
2019-03-23T01:26:52.367Z,6.50
2019-03-23T01:28:08.769Z,6.40
2019-03-23T01:29:25.089Z,6.40
2019-03-23T01:30:42.116Z,6.40
2019-03-23T01:31:58.734Z,6.40
2019-03-23T01:33:15.180Z,6.30
2019-03-23T01:34:32.468Z,6.30
2019-03-23T01:35:49.669Z,6.20
2019-03-23T01:37:06.941Z,6.20
2019-03-23T01:38:23.294Z,6.20
2019-03-23T01:39:28.900Z,6.20
2019-03-23T01:40:53.378Z,6.10
2019-03-23T01:42:09.670Z,6.10
2019-03-23T01:43:26.122Z,6.10
2019-03-23T01:44:42.404Z,6.10
2019-03-23T01:45:59.077Z,6.00
2019-03-23T01:47:15.575Z,6.00
2019-03-23T01:48:31.838Z,5.90
2019-03-23T01:49:48.238Z,5.90
2019-03-23T01:51:04.677Z,5.80
2019-03-23T01:52:21.886Z,5.80
2019-03-23T01:53:38.370Z,5.80
2019-03-23T01:54:54.897Z,5.70
2019-03-23T01:56:12.021Z,5.60
2019-03-23T01:57:17.705Z,5.50
2019-03-23T01:58:53.006Z,5.40
2019-03-23T02:01:53.831Z,5.40
2019-03-23T02:03:10.448Z,5.40
2019-03-23T02:04:27.674Z,5.40
2019-03-23T02:05:44.063Z,5.40
2019-03-23T02:06:49.664Z,5.40
2019-03-23T02:07:55.193Z,5.40
2019-03-23T02:09:00.758Z,5.30
2019-03-23T02:10:08.253Z,5.30
2019-03-23T02:11:14.243Z,5.30
2019-03-23T02:12:20.030Z,5.30
2019-03-23T02:13:25.676Z,5.30
2019-03-23T02:14:31.362Z,5.30
2019-03-23T02:15:37.053Z,5.30
2019-03-23T02:16:42.716Z,5.30
2019-03-23T02:17:48.279Z,5.30
2019-03-23T02:18:53.919Z,5.30
2019-03-23T02:19:59.477Z,5.30
2019-03-23T02:21:05.201Z,5.40
2019-03-23T02:22:10.868Z,5.40
2019-03-23T02:23:16.437Z,5.40
2019-03-23T02:24:22.080Z,5.40
2019-03-23T02:25:27.730Z,5.50
2019-03-23T02:26:33.439Z,5.40
2019-03-23T02:27:39.092Z,5.50
2019-03-23T02:28:44.809Z,5.50
2019-03-23T02:29:50.401Z,5.50
2019-03-23T02:30:56.052Z,5.50
2019-03-23T02:32:01.968Z,5.40
2019-03-23T02:33:07.626Z,5.50
2019-03-23T02:34:13.274Z,5.50
2019-03-23T02:35:18.925Z,5.40
2019-03-23T02:36:24.608Z,5.40
2019-03-23T02:37:30.165Z,5.40
2019-03-23T02:38:35.801Z,5.50
2019-03-23T02:39:41.461Z,5.50
2019-03-23T02:40:48.193Z,5.50
2019-03-23T02:41:53.783Z,5.40
2019-03-23T02:42:59.482Z,5.40
2019-03-23T02:44:05.172Z,5.40
2019-03-23T02:45:10.947Z,5.40
2019-03-23T02:46:16.580Z,5.40
2019-03-23T02:47:22.553Z,5.40
2019-03-23T02:48:28.177Z,5.40
2019-03-23T02:49:34.822Z,5.40
2019-03-23T02:50:40.387Z,5.40
2019-03-23T02:51:46.019Z,5.30
2019-03-23T02:52:51.603Z,5.30
2019-03-23T02:53:57.291Z,5.30
2019-03-23T02:55:02.900Z,5.30
2019-03-23T02:56:08.574Z,5.30
2019-03-23T02:57:14.278Z,5.30
2019-03-23T02:58:19.966Z,5.30
2019-03-23T02:59:25.598Z,5.30
2019-03-23T03:00:31.320Z,5.30
2019-03-23T03:01:37.002Z,5.30
2019-03-23T03:02:42.648Z,5.30
2019-03-23T03:03:48.258Z,5.30
2019-03-23T03:04:53.846Z,5.30
2019-03-23T03:05:59.412Z,5.30
2019-03-23T03:07:05.079Z,5.30
2019-03-23T03:08:10.757Z,5.30
2019-03-23T03:09:16.438Z,5.30
2019-03-23T03:10:39.506Z,5.30
2019-03-23T03:11:45.056Z,5.20
2019-03-23T03:12:50.764Z,5.20
2019-03-23T03:13:56.402Z,5.20
2019-03-23T03:15:02.069Z,5.30
2019-03-23T03:16:07.702Z,5.20
2019-03-23T03:17:13.331Z,5.20
2019-03-23T03:18:18.973Z,5.20
2019-03-23T03:19:24.545Z,5.20
2019-03-23T03:20:30.180Z,5.10
2019-03-23T03:21:35.753Z,5.10
2019-03-23T03:22:42.484Z,5.10
2019-03-23T03:23:48.137Z,5.10
2019-03-23T03:24:53.696Z,5.00
2019-03-23T03:25:59.311Z,5.00
2019-03-23T03:27:04.904Z,5.00
2019-03-23T03:28:10.571Z,5.00
2019-03-23T03:29:16.190Z,5.00
2019-03-23T03:30:21.829Z,5.00
2019-03-23T03:31:27.449Z,5.00
2019-03-23T03:32:32.990Z,4.90
2019-03-23T03:33:38.629Z,5.00
2019-03-23T03:34:44.256Z,5.00
2019-03-23T03:35:49.907Z,4.90
2019-03-23T03:36:55.489Z,4.90
2019-03-23T03:38:01.109Z,4.90
2019-03-23T03:39:08.279Z,4.90
2019-03-23T03:40:13.942Z,4.90
2019-03-23T03:41:19.577Z,4.90
2019-03-23T03:42:25.293Z,4.90
2019-03-23T03:43:30.891Z,4.90
2019-03-23T03:44:36.498Z,4.90
2019-03-23T03:45:42.214Z,4.90
2019-03-23T03:46:47.831Z,4.90
2019-03-23T03:47:54.416Z,4.90
2019-03-23T03:49:11.834Z,4.90
2019-03-23T03:50:07.714Z,4.90
2019-03-23T03:51:14.460Z,4.90
2019-03-23T03:52:20.097Z,4.80
2019-03-23T03:53:25.749Z,4.90
2019-03-23T03:54:31.436Z,4.90
2019-03-23T03:55:36.989Z,4.90
2019-03-23T03:56:42.532Z,4.90
2019-03-23T03:57:49.190Z,4.90
2019-03-23T03:58:55.169Z,4.90
2019-03-23T04:00:00.800Z,4.90
2019-03-23T04:01:06.373Z,4.90
2019-03-23T04:02:12.025Z,4.90
2019-03-23T04:03:17.657Z,4.90
2019-03-23T04:04:23.294Z,4.90
2019-03-23T04:05:28.934Z,4.90
2019-03-23T04:06:34.536Z,4.90
2019-03-23T04:07:40.122Z,4.90
2019-03-23T04:08:45.791Z,4.90
2019-03-23T04:09:51.466Z,4.90
2019-03-23T04:10:57.130Z,4.80
2019-03-23T04:12:02.770Z,4.80
2019-03-23T04:13:08.409Z,4.80
2019-03-23T04:14:14.065Z,4.80
2019-03-23T04:15:19.710Z,4.90
2019-03-23T04:16:25.337Z,4.90
2019-03-23T04:17:30.903Z,4.80
2019-03-23T04:18:36.488Z,4.90
2019-03-23T04:19:42.151Z,4.90
2019-03-23T04:20:47.803Z,4.90
2019-03-23T04:21:53.374Z,4.90
2019-03-23T04:22:59.027Z,4.90
2019-03-23T04:24:04.701Z,4.90
2019-03-23T04:25:10.718Z,4.90
2019-03-23T04:26:16.412Z,4.90
2019-03-23T04:27:22.025Z,4.90
2019-03-23T04:28:27.646Z,4.90
2019-03-23T04:29:33.425Z,4.90
2019-03-23T04:30:39.193Z,4.90
2019-03-23T04:31:45.818Z,4.90
2019-03-23T04:32:51.488Z,4.90
2019-03-23T04:33:57.156Z,4.90
2019-03-23T04:35:02.847Z,4.90
2019-03-23T04:36:08.473Z,4.90
2019-03-23T04:37:14.157Z,4.90
2019-03-23T04:38:23.106Z,4.80
2019-03-23T04:39:27.144Z,4.80
2019-03-23T04:40:32.704Z,4.80
2019-03-23T04:41:38.340Z,4.80
2019-03-23T04:42:43.867Z,4.70
2019-03-23T04:43:49.439Z,4.70
2019-03-23T04:44:55.097Z,4.70
2019-03-23T04:46:00.692Z,4.70
2019-03-23T04:47:06.375Z,4.70
2019-03-23T04:48:11.932Z,4.60
2019-03-23T04:49:17.494Z,4.60
2019-03-23T04:50:23.074Z,4.60
2019-03-23T04:51:28.686Z,4.60
2019-03-23T04:52:34.388Z,4.60
2019-03-23T04:53:39.920Z,4.60
2019-03-23T04:54:45.566Z,4.50
2019-03-23T04:55:51.240Z,4.50
2019-03-23T04:56:56.882Z,4.50
2019-03-23T04:58:02.445Z,4.50
2019-03-23T04:59:08.068Z,4.50
2019-03-23T05:00:14.622Z,4.50
2019-03-23T05:01:20.305Z,4.50
2019-03-23T05:02:25.884Z,4.50
2019-03-23T05:03:31.593Z,4.40
2019-03-23T05:04:37.239Z,4.40
2019-03-23T05:05:42.881Z,4.40
2019-03-23T05:06:48.519Z,4.40
2019-03-23T05:07:54.134Z,4.40
2019-03-23T05:08:59.792Z,4.40
2019-03-23T05:10:06.505Z,4.30
2019-03-23T05:11:12.172Z,4.30
2019-03-23T05:12:17.926Z,4.30
2019-03-23T05:13:23.504Z,4.20
2019-03-23T05:14:29.155Z,4.20
2019-03-23T05:15:34.844Z,4.20
2019-03-23T05:16:40.524Z,4.20
2019-03-23T05:17:46.163Z,4.10
2019-03-23T05:18:51.817Z,4.00
2019-03-23T05:19:57.499Z,4.00
2019-03-23T05:21:03.233Z,4.00
2019-03-23T05:22:08.865Z,4.00
2019-03-23T05:23:14.445Z,3.90
2019-03-23T05:24:20.024Z,3.90
2019-03-23T05:25:26.620Z,3.90
2019-03-23T05:26:32.233Z,3.90
2019-03-23T05:27:37.858Z,3.90
2019-03-23T05:28:43.455Z,3.90
2019-03-23T05:29:49.075Z,3.90
2019-03-23T05:30:54.652Z,4.00
2019-03-23T05:32:00.386Z,4.00
2019-03-23T05:33:06.022Z,4.10
2019-03-23T05:34:11.671Z,4.20
2019-03-23T05:35:17.255Z,4.40
2019-03-23T05:36:22.888Z,4.50
2019-03-23T05:37:28.544Z,4.70
2019-03-23T05:38:43.803Z,4.90
2019-03-23T05:39:41.609Z,5.10
2019-03-23T05:40:47.286Z,5.30
2019-03-23T05:41:52.872Z,5.50
2019-03-23T05:42:58.560Z,5.70
2019-03-23T05:44:04.446Z,6.00
2019-03-23T05:45:10.405Z,6.20
2019-03-23T05:46:16.065Z,6.50
2019-03-23T05:47:21.737Z,6.80
2019-03-23T05:48:27.336Z,7.20
2019-03-23T05:49:33.006Z,7.50
2019-03-23T05:50:38.720Z,7.80
2019-03-23T05:51:44.493Z,8.10
2019-03-23T05:52:50.088Z,8.40
2019-03-23T05:53:55.723Z,8.60
2019-03-23T05:55:01.386Z,8.90
2019-03-23T05:56:07.046Z,9.20
2019-03-23T05:57:12.617Z,9.50
2019-03-23T05:58:18.272Z,9.80
2019-03-23T05:59:23.960Z,10.00
2019-03-23T06:00:29.640Z,10.30
2019-03-23T06:01:35.320Z,10.60
2019-03-23T06:02:40.861Z,11.00
2019-03-23T06:03:46.517Z,11.30
2019-03-23T06:04:52.158Z,11.60
2019-03-23T06:05:57.820Z,12.00
2019-03-23T06:07:03.556Z,12.30
2019-03-23T06:08:09.348Z,12.60
2019-03-23T06:09:14.971Z,13.00
2019-03-23T06:10:20.616Z,13.50
2019-03-23T06:11:26.276Z,13.90
2019-03-23T06:12:31.920Z,14.40
2019-03-23T06:13:37.584Z,14.80
2019-03-23T06:14:43.418Z,15.20
2019-03-23T06:15:49.140Z,15.60
2019-03-23T06:16:54.820Z,15.90
2019-03-23T06:18:00.474Z,16.20
2019-03-23T06:19:06.182Z,16.50
2019-03-23T06:20:11.777Z,16.90
2019-03-23T06:21:17.382Z,17.20
2019-03-23T06:22:22.973Z,17.40
2019-03-23T06:23:28.640Z,17.80
2019-03-23T06:24:34.329Z,18.10
2019-03-23T06:25:40.016Z,18.50
2019-03-23T06:26:45.691Z,18.80
2019-03-23T06:27:51.341Z,19.00
2019-03-23T06:28:57.036Z,19.20
2019-03-23T06:30:02.674Z,19.60
2019-03-23T06:31:08.253Z,19.90
2019-03-23T06:32:13.949Z,20.20
2019-03-23T06:33:19.617Z,20.50
2019-03-23T06:34:25.291Z,20.80
2019-03-23T06:35:31.036Z,21.00
2019-03-23T06:36:36.703Z,21.30
2019-03-23T06:37:42.300Z,21.60
2019-03-23T06:38:47.992Z,21.90
2019-03-23T06:39:59.007Z,22.20
2019-03-23T06:41:04.684Z,22.50
2019-03-23T06:42:10.283Z,23.00
2019-03-23T06:43:15.928Z,23.40
2019-03-23T06:44:21.585Z,23.80
2019-03-23T06:45:27.280Z,24.20
2019-03-23T06:46:32.860Z,24.50
2019-03-23T06:47:38.525Z,24.90
2019-03-23T06:48:44.180Z,25.20
2019-03-23T06:49:49.792Z,25.50
2019-03-23T06:50:55.415Z,25.80
2019-03-23T06:52:02.067Z,26.10
2019-03-23T06:53:07.658Z,26.40
2019-03-23T06:54:13.317Z,26.70
2019-03-23T06:55:18.920Z,27.10
2019-03-23T06:56:24.626Z,27.30
2019-03-23T06:57:30.186Z,27.50
2019-03-23T06:58:35.881Z,27.90
2019-03-23T06:59:41.512Z,28.30
2019-03-23T07:00:47.265Z,28.70
2019-03-23T07:01:52.899Z,29.10
2019-03-23T07:02:59.526Z,29.50
2019-03-23T07:04:05.253Z,29.90
2019-03-23T07:05:11.148Z,30.30
2019-03-23T07:06:16.807Z,30.50
2019-03-23T07:07:23.425Z,30.90
2019-03-23T07:08:32.079Z,30.50
2019-03-23T07:09:36.522Z,31.00
2019-03-23T07:10:43.226Z,31.30
2019-03-23T07:11:48.921Z,31.70
2019-03-23T07:12:54.473Z,32.00
2019-03-23T07:14:00.066Z,31.80
2019-03-23T07:15:06.843Z,32.20
2019-03-23T07:16:12.404Z,32.40
2019-03-23T07:17:18.057Z,32.60
2019-03-23T07:18:23.698Z,32.80
2019-03-23T07:19:29.285Z,33.10
2019-03-23T07:20:34.862Z,33.30
2019-03-23T07:21:40.597Z,33.50
2019-03-23T07:22:46.173Z,33.70
2019-03-23T07:23:51.719Z,34.00
2019-03-23T07:24:57.489Z,34.30
2019-03-23T07:26:03.198Z,34.70
2019-03-23T07:27:08.800Z,35.00
2019-03-23T07:28:14.441Z,35.20
2019-03-23T07:29:20.096Z,35.50
2019-03-23T07:30:25.805Z,35.70
2019-03-23T07:31:31.505Z,35.90
2019-03-23T07:32:37.308Z,36.20
2019-03-23T07:33:43.085Z,36.10
2019-03-23T07:34:48.723Z,35.90
2019-03-23T07:35:54.314Z,36.10
2019-03-23T07:36:59.991Z,36.10
2019-03-23T07:38:05.636Z,36.00
2019-03-23T07:39:11.305Z,36.00
2019-03-23T07:40:16.911Z,36.00
2019-03-23T07:41:22.640Z,36.00
2019-03-23T07:42:28.248Z,36.00
2019-03-23T07:43:33.833Z,36.00
2019-03-23T07:44:39.494Z,36.00
2019-03-23T07:45:45.143Z,36.00
2019-03-23T07:46:50.904Z,35.90
2019-03-23T07:47:56.633Z,36.00
2019-03-23T07:49:03.061Z,36.00
2019-03-23T07:50:08.992Z,36.40
2019-03-23T07:51:14.669Z,36.70
2019-03-23T07:52:20.373Z,36.90
2019-03-23T07:53:26.073Z,37.30
2019-03-23T07:54:31.775Z,37.60
2019-03-23T07:55:37.450Z,37.90
2019-03-23T07:56:42.995Z,38.00
2019-03-23T07:57:48.672Z,38.10
2019-03-23T07:58:54.341Z,38.30
2019-03-23T07:59:59.982Z,38.40
2019-03-23T08:01:06.056Z,38.60
2019-03-23T08:02:11.742Z,38.90
2019-03-23T08:03:17.408Z,39.00
2019-03-23T08:04:23.020Z,38.90
2019-03-23T08:05:28.772Z,39.10
2019-03-23T08:06:53.138Z,38.90
2019-03-23T08:08:09.676Z,39.20
2019-03-23T08:09:37.106Z,39.20
2019-03-23T08:10:46.146Z,39.50
2019-03-23T08:12:02.544Z,39.70
2019-03-23T08:13:19.630Z,40.10
2019-03-23T08:14:36.208Z,40.30
2019-03-23T08:15:54.857Z,40.30
2019-03-23T08:17:11.158Z,40.50
2019-03-23T08:18:27.709Z,40.90
2019-03-23T08:19:44.949Z,41.30
2019-03-23T08:21:01.562Z,41.50
2019-03-23T08:22:18.254Z,41.80
2019-03-23T08:23:35.504Z,42.10
2019-03-23T08:24:52.537Z,42.40
2019-03-23T08:26:09.867Z,42.40
2019-03-23T08:27:26.276Z,42.40
2019-03-23T08:28:42.847Z,42.50
2019-03-23T08:29:59.275Z,42.30
2019-03-23T08:31:15.621Z,42.20
2019-03-23T08:32:32.051Z,42.50
2019-03-23T08:33:47.505Z,42.70
2019-03-23T08:35:12.044Z,43.00
2019-03-23T08:36:28.544Z,43.20
2019-03-23T08:37:45.599Z,43.00
2019-03-23T08:39:03.538Z,41.30
2019-03-23T08:40:20.284Z,40.90
2019-03-23T08:41:36.857Z,41.40
2019-03-23T08:42:55.137Z,41.80
2019-03-23T08:44:11.782Z,42.30
2019-03-23T08:45:28.625Z,42.80
2019-03-23T08:46:46.420Z,43.20
2019-03-23T08:48:02.982Z,43.40
2019-03-23T08:49:20.467Z,43.60
2019-03-23T08:50:36.924Z,43.70
2019-03-23T08:51:53.766Z,42.70
2019-03-23T08:53:10.393Z,42.80
2019-03-23T08:54:27.676Z,43.20
2019-03-23T08:55:44.210Z,43.10
2019-03-23T08:57:01.037Z,43.40
2019-03-23T08:58:17.499Z,43.50
2019-03-23T09:01:08.918Z,42.40
2019-03-23T09:02:25.994Z,42.70
2019-03-23T09:03:51.991Z,42.80
2019-03-23T09:05:01.787Z,43.00
2019-03-23T09:06:18.397Z,43.10
2019-03-23T09:07:35.906Z,43.00
2019-03-23T09:08:52.362Z,43.30
2019-03-23T09:10:09.137Z,43.20
2019-03-23T09:11:25.648Z,43.60
2019-03-23T09:12:42.057Z,44.00
2019-03-23T09:13:58.401Z,44.40
2019-03-23T09:15:14.929Z,44.50
2019-03-23T09:16:31.908Z,44.80
2019-03-23T09:17:48.746Z,44.40
2019-03-23T09:19:05.208Z,44.40
2019-03-23T09:20:22.496Z,44.30
2019-03-23T09:21:38.915Z,44.30
2019-03-23T09:22:55.305Z,44.30
2019-03-23T09:24:12.668Z,44.40
2019-03-23T09:25:30.076Z,44.40
2019-03-23T09:26:46.426Z,44.60
2019-03-23T09:28:02.839Z,44.80
2019-03-23T09:29:19.390Z,45.00
2019-03-23T09:30:36.375Z,45.30
2019-03-23T09:31:52.830Z,45.40
2019-03-23T09:33:09.952Z,45.40
2019-03-23T09:34:26.544Z,45.40
2019-03-23T09:35:43.148Z,45.10
2019-03-23T09:37:00.156Z,45.20
2019-03-23T09:38:16.902Z,44.90
2019-03-23T09:39:34.393Z,44.00
2019-03-23T09:40:50.911Z,43.60
2019-03-23T09:42:07.441Z,43.80
2019-03-23T09:43:24.297Z,44.00
2019-03-23T09:44:41.289Z,44.10
2019-03-23T09:45:58.521Z,44.20
2019-03-23T09:47:15.131Z,44.00
2019-03-23T09:48:31.545Z,43.80
2019-03-23T09:49:47.940Z,44.00
2019-03-23T09:51:04.609Z,43.90
2019-03-23T09:52:21.238Z,44.40
2019-03-23T09:53:37.636Z,44.80
2019-03-23T09:54:54.037Z,45.00
2019-03-23T09:56:10.683Z,45.10
2019-03-23T09:57:27.956Z,45.10
2019-03-23T09:58:44.542Z,44.80
2019-03-23T10:00:00.079Z,43.70
2019-03-23T10:01:24.524Z,43.50
2019-03-23T10:02:49.153Z,43.30
2019-03-23T10:04:05.654Z,42.70
2019-03-23T10:05:22.149Z,41.40
2019-03-23T10:06:39.133Z,41.20
2019-03-23T10:07:55.631Z,39.70
2019-03-23T10:09:12.608Z,39.20
2019-03-23T10:10:29.199Z,38.90
2019-03-23T10:11:45.491Z,38.80
2019-03-23T10:13:01.933Z,38.40
2019-03-23T10:14:18.839Z,38.00
2019-03-23T10:15:35.242Z,38.50
2019-03-23T10:16:51.556Z,38.80
2019-03-23T10:18:08.252Z,39.10
2019-03-23T10:19:23.744Z,39.00
2019-03-23T10:20:48.175Z,39.20
2019-03-23T10:22:05.170Z,39.50
2019-03-23T10:23:20.667Z,39.10
2019-03-23T10:24:45.137Z,38.80
2019-03-23T10:26:21.478Z,38.50
2019-03-23T10:27:38.273Z,38.10
2019-03-23T10:28:54.757Z,37.70
2019-03-23T10:30:12.320Z,37.30
2019-03-23T10:31:29.305Z,36.90
2019-03-23T10:32:44.761Z,35.80
2019-03-23T10:34:09.149Z,35.40
2019-03-23T10:35:25.459Z,35.50
2019-03-23T10:36:42.283Z,35.20
2019-03-23T10:37:58.657Z,33.80
2019-03-23T10:39:15.196Z,33.50
2019-03-23T10:40:32.981Z,33.50
2019-03-23T10:41:50.961Z,33.40
2019-03-23T10:43:07.475Z,32.40
2019-03-23T10:44:24.144Z,31.80
2019-03-23T10:45:44.108Z,31.50
2019-03-23T10:47:05.801Z,31.40
2019-03-23T10:48:22.272Z,31.30
2019-03-23T10:49:38.681Z,31.20
2019-03-23T10:50:55.032Z,30.60
2019-03-23T10:52:11.558Z,29.70
2019-03-23T10:53:28.652Z,29.70
2019-03-23T10:54:45.165Z,29.60
2019-03-23T10:56:01.663Z,29.60
2019-03-23T10:57:18.596Z,28.80
2019-03-23T10:58:35.483Z,28.10
2019-03-23T10:59:52.169Z,27.20
2019-03-23T11:01:09.348Z,26.20
2019-03-23T11:02:25.869Z,25.20
2019-03-23T11:03:42.889Z,24.90
2019-03-23T11:04:59.908Z,24.80
2019-03-23T11:06:16.461Z,24.40
2019-03-23T11:07:31.953Z,23.50
2019-03-23T11:08:56.485Z,23.20
2019-03-23T11:10:13.359Z,23.10
2019-03-23T11:11:29.748Z,22.60
2019-03-23T11:12:46.188Z,22.40
2019-03-23T11:14:02.975Z,22.30
2019-03-23T11:15:19.506Z,22.10
2019-03-23T11:16:35.796Z,22.00
2019-03-23T11:17:52.155Z,22.00
2019-03-23T11:19:13.450Z,21.80
2019-03-23T11:20:27.655Z,21.80
2019-03-23T11:21:44.057Z,21.40
2019-03-23T11:23:00.339Z,20.80
2019-03-23T11:24:17.371Z,20.60
2019-03-23T11:25:34.309Z,20.50
2019-03-23T11:26:50.884Z,20.60
2019-03-23T11:28:07.307Z,20.70
2019-03-23T11:29:24.633Z,20.70
2019-03-23T11:30:41.492Z,20.30
2019-03-23T11:31:58.317Z,19.80
2019-03-23T11:33:14.698Z,19.40
2019-03-23T11:34:31.652Z,19.40
2019-03-23T11:35:57.437Z,19.60
2019-03-23T11:37:05.567Z,19.50
2019-03-23T11:38:30.081Z,19.60
2019-03-23T11:39:46.693Z,19.70
2019-03-23T11:41:03.517Z,19.80
2019-03-23T11:42:19.967Z,19.80
2019-03-23T11:43:36.491Z,19.80
2019-03-23T11:44:53.474Z,19.80
2019-03-23T11:46:10.101Z,19.70
2019-03-23T11:47:27.238Z,19.70
2019-03-23T11:48:44.305Z,19.80
2019-03-23T11:50:00.698Z,19.90
2019-03-23T11:51:17.329Z,20.00
2019-03-23T11:52:32.833Z,20.00
2019-03-23T11:55:57.939Z,20.10
2019-03-23T11:57:14.344Z,20.10
2019-03-23T11:58:30.886Z,19.90
2019-03-23T11:59:49.049Z,19.70
2019-03-23T12:01:06.272Z,19.70
2019-03-23T12:02:23.461Z,19.50
2019-03-23T12:03:39.784Z,19.30
2019-03-23T12:04:57.038Z,19.20
2019-03-23T12:06:12.545Z,19.00
2019-03-23T12:09:13.420Z,19.30
2019-03-23T12:10:29.922Z,19.50
2019-03-23T12:11:47.266Z,19.60
2019-03-23T12:13:04.526Z,19.70
2019-03-23T12:14:21.737Z,19.70
2019-03-23T12:15:42.373Z,19.60
2019-03-23T12:17:00.490Z,19.70
2019-03-23T12:18:17.090Z,19.70
2019-03-23T12:19:33.583Z,19.70
2019-03-23T12:20:50.064Z,19.80
2019-03-23T12:22:06.552Z,19.90
2019-03-23T12:23:23.074Z,19.90
2019-03-23T12:24:39.542Z,20.00
2019-03-23T12:25:56.117Z,20.00
2019-03-23T12:27:12.792Z,19.90
2019-03-23T12:28:30.008Z,19.90
2019-03-23T12:29:46.660Z,20.00
2019-03-23T12:31:03.891Z,20.00
2019-03-23T12:32:20.497Z,20.10
2019-03-23T12:33:37.800Z,20.20
2019-03-23T12:34:54.329Z,20.10
2019-03-23T12:36:10.834Z,20.20
2019-03-23T12:37:27.215Z,20.30
2019-03-23T12:38:44.456Z,20.30
2019-03-23T12:40:01.038Z,20.30
2019-03-23T12:41:23.038Z,20.30
2019-03-23T12:42:37.222Z,20.30
2019-03-23T12:43:53.578Z,20.40
2019-03-23T12:45:09.853Z,20.40
2019-03-23T12:46:26.607Z,20.50
2019-03-23T12:47:42.152Z,20.60
2019-03-23T12:50:47.788Z,20.70
2019-03-23T12:52:05.106Z,20.70
2019-03-23T12:53:21.782Z,20.80
2019-03-23T12:54:39.637Z,20.90
2019-03-23T12:55:56.042Z,20.90
2019-03-23T12:57:12.453Z,21.00
2019-03-23T12:58:29.093Z,21.00
2019-03-23T12:59:45.552Z,20.90
2019-03-23T13:01:02.015Z,20.70
2019-03-23T13:02:18.385Z,20.70
2019-03-23T13:03:35.591Z,20.70
2019-03-23T13:04:52.689Z,20.80
2019-03-23T13:06:09.231Z,20.80
2019-03-23T13:07:26.389Z,20.80
2019-03-23T13:08:43.201Z,21.00
2019-03-23T13:09:59.485Z,20.90
2019-03-23T13:11:23.295Z,20.80
2019-03-23T13:12:35.059Z,20.90
2019-03-23T13:13:51.670Z,20.90
2019-03-23T13:15:08.264Z,21.00
2019-03-23T13:16:25.490Z,21.10
2019-03-23T13:17:42.654Z,21.00
2019-03-23T13:18:59.239Z,21.10
2019-03-23T13:20:16.171Z,21.10
2019-03-23T13:21:32.873Z,21.00
2019-03-23T13:22:49.417Z,20.90
2019-03-23T13:24:06.675Z,20.80
2019-03-23T13:25:23.416Z,20.70
2019-03-23T13:26:39.957Z,20.70
2019-03-23T13:27:55.381Z,20.70
2019-03-23T13:29:12.191Z,20.70
2019-03-23T13:30:28.685Z,20.70
2019-03-23T13:31:45.709Z,20.70
2019-03-23T13:33:02.224Z,20.60
2019-03-23T13:34:18.631Z,20.70
2019-03-23T13:35:35.488Z,20.70
2019-03-23T13:36:52.464Z,20.70
2019-03-23T13:38:08.995Z,20.60
2019-03-23T13:39:25.487Z,20.60
2019-03-23T13:40:41.984Z,20.60
2019-03-23T13:41:58.917Z,20.60
2019-03-23T13:43:15.769Z,20.60
2019-03-23T13:44:32.415Z,20.60
2019-03-23T13:45:48.978Z,20.60
2019-03-23T13:47:05.298Z,20.60
2019-03-23T13:48:21.930Z,20.60
2019-03-23T13:49:38.768Z,20.70
2019-03-23T13:50:56.376Z,20.70
2019-03-23T13:52:12.750Z,20.70
2019-03-23T13:53:29.268Z,20.70
2019-03-23T13:54:45.650Z,20.80
2019-03-23T13:56:02.768Z,20.80
2019-03-23T13:57:19.328Z,20.90
2019-03-23T13:58:35.986Z,21.00
2019-03-23T13:59:52.859Z,21.00
2019-03-23T14:01:09.296Z,21.10
2019-03-23T14:02:25.990Z,21.00
2019-03-23T14:03:42.789Z,20.90
2019-03-23T14:05:02.245Z,20.80
2019-03-23T14:06:19.057Z,20.60
2019-03-23T14:07:36.388Z,20.50
2019-03-23T14:08:52.834Z,20.10
2019-03-23T14:10:09.597Z,19.90
2019-03-23T14:11:26.005Z,19.90
2019-03-23T14:12:42.544Z,20.00
2019-03-23T14:13:58.885Z,20.00
2019-03-23T14:15:15.736Z,20.00
2019-03-23T14:16:32.146Z,20.00
2019-03-23T14:17:48.553Z,19.90
2019-03-23T14:19:05.669Z,19.70
2019-03-23T14:20:22.044Z,19.70
2019-03-23T14:21:38.388Z,19.70
2019-03-23T14:23:02.287Z,19.80
2019-03-23T14:24:13.947Z,19.90
2019-03-23T14:25:30.364Z,19.90
2019-03-23T14:26:45.866Z,20.00
2019-03-23T14:30:05.496Z,19.90
2019-03-23T14:31:20.905Z,19.90
2019-03-23T14:32:45.293Z,19.80
2019-03-23T14:34:02.103Z,19.90
2019-03-23T14:35:18.518Z,19.90
2019-03-23T14:36:34.921Z,19.90
2019-03-23T14:37:52.113Z,19.90
2019-03-23T14:39:08.746Z,19.80
2019-03-23T14:40:25.721Z,19.80
2019-03-23T14:41:42.185Z,19.80
2019-03-23T14:42:58.633Z,19.90
2019-03-23T14:44:15.337Z,19.90
2019-03-23T14:45:30.821Z,19.90
2019-03-23T14:46:47.177Z,19.90
2019-03-23T14:48:02.701Z,19.90
2019-03-23T14:49:27.132Z,19.90
2019-03-23T14:50:43.449Z,19.90
2019-03-23T14:51:59.018Z,20.00
2019-03-23T14:53:24.512Z,20.00
2019-03-23T14:54:40.880Z,20.00
2019-03-23T14:55:57.407Z,20.00
2019-03-23T14:57:13.791Z,20.00
2019-03-23T14:58:29.261Z,20.00
2019-03-23T14:59:53.632Z,20.00
2019-03-23T15:01:10.531Z,20.00
2019-03-23T15:02:26.013Z,20.00
2019-03-23T15:03:50.415Z,19.90
2019-03-23T15:05:07.029Z,20.00
2019-03-23T15:06:25.300Z,20.00
2019-03-23T15:07:41.679Z,20.00
2019-03-23T15:08:58.859Z,20.00
2019-03-23T15:10:14.506Z,20.00
2019-03-23T15:11:38.974Z,19.90
2019-03-23T15:12:55.598Z,19.90
2019-03-23T15:14:12.410Z,19.90
2019-03-23T15:15:29.532Z,19.90
2019-03-23T15:16:46.832Z,19.80
2019-03-23T15:18:03.884Z,19.70
2019-03-23T15:19:21.807Z,19.60
2019-03-23T15:20:38.223Z,19.50
2019-03-23T15:21:55.439Z,19.50
2019-03-23T15:23:12.267Z,19.50
2019-03-23T15:24:29.008Z,19.50
2019-03-23T15:25:46.188Z,19.50
2019-03-23T15:27:03.037Z,19.50
2019-03-23T15:28:20.312Z,19.40
2019-03-23T15:29:36.731Z,19.40
2019-03-23T15:30:53.346Z,19.30
2019-03-23T15:32:08.845Z,19.30
2019-03-23T15:33:33.226Z,19.20
2019-03-23T15:34:57.605Z,19.10
2019-03-23T15:36:14.104Z,19.10
2019-03-23T15:37:31.216Z,19.00
2019-03-23T15:38:47.513Z,19.00
2019-03-23T15:40:05.656Z,18.90
2019-03-23T15:41:22.112Z,18.80
2019-03-23T15:42:38.640Z,18.70
2019-03-23T15:43:55.274Z,18.60
2019-03-23T15:45:11.932Z,18.50
2019-03-23T15:46:28.622Z,18.60
2019-03-23T15:47:45.680Z,18.60
2019-03-23T15:49:02.839Z,18.50
2019-03-23T15:50:19.733Z,18.50
2019-03-23T15:51:36.217Z,18.40
2019-03-23T15:52:53.350Z,18.30
2019-03-23T15:54:13.034Z,18.20
2019-03-23T15:55:29.400Z,18.10